Time;durP1;ratioP1;P1;durP2;ratioP2;P2;SDS_P1;SDS_P2;PMS_P1;PMS_P2;Temp;Humidity;BMP_temperature;BMP_pressure;BME280_temperature;BME280_humidity;BME280_pressure;Samples;Min_cycle;Max_cycle;Signal;HPM_P1;HPM_P2
2024/01/12 00:01:02;;;;;;;38.90;23.47;;;0.10;99.90;;;;;;5019573;28;20439;-61
2024/01/12 00:03:29;;;;;;;33.80;21.47;;;0.20;99.90;;;;;;5019164;28;20772;-60
2024/01/12 00:05:57;;;;;;;38.80;23.47;;;0.20;99.90;;;;;;5019645;28;20876;-61
2024/01/12 00:08:24;;;;;;;44.13;23.20;;;0.10;99.90;;;;;;5019834;28;20870;-60
2024/01/12 00:10:52;;;;;;;36.37;22.70;;;0.10;99.90;;;;;;5019880;28;20532;-61
2024/01/12 00:13:22;;;;;;;44.93;23.73;;;0.20;99.90;;;;;;5019013;28;20463;-60
2024/01/12 00:15:49;;;;;;;36.80;22.90;;;0.10;99.90;;;;;;5019808;28;20559;-60
2024/01/12 00:18:17;;;;;;;39.17;22.93;;;0.00;99.90;;;;;;5019882;28;20840;-61
2024/01/12 00:20:44;;;;;;;42.67;25.13;;;0.10;99.90;;;;;;5019068;28;20478;-60
2024/01/12 00:23:12;;;;;;;46.30;25.70;;;0.00;99.90;;;;;;5018968;28;20585;-61
2024/01/12 00:25:40;;;;;;;40.97;24.37;;;0.00;99.90;;;;;;5019342;28;20843;-61
2024/01/12 00:28:08;;;;;;;39.43;24.83;;;0.10;99.90;;;;;;5019845;28;20770;-60
2024/01/12 00:30:36;;;;;;;39.97;24.70;;;0.10;99.90;;;;;;5018903;28;20525;-61
2024/01/12 00:33:07;;;;;;;41.47;24.40;;;0.10;99.90;;;;;;5019143;28;20872;-61
2024/01/12 00:35:35;;;;;;;44.73;24.33;;;0.10;99.90;;;;;;5019063;28;20460;-61
2024/01/12 00:38:02;;;;;;;46.70;25.73;;;0.00;99.90;;;;;;5019364;28;20468;-61
2024/01/12 00:40:30;;;;;;;45.43;27.00;;;-0.10;99.90;;;;;;5019105;28;20434;-61
2024/01/12 00:42:57;;;;;;;44.90;25.10;;;-0.10;99.90;;;;;;5019108;28;20947;-60
2024/01/12 00:45:25;;;;;;;45.80;27.03;;;0.00;99.90;;;;;;5019090;28;20496;-61
2024/01/12 00:47:54;;;;;;;47.10;25.07;;;0.00;99.90;;;;;;5018723;28;20525;-60
2024/01/12 00:50:21;;;;;;;43.10;26.67;;;-0.10;99.90;;;;;;5018784;28;20460;-61
2024/01/12 00:52:48;;;;;;;50.60;26.60;;;-0.10;99.90;;;;;;5019147;28;20467;-61
2024/01/12 00:55:16;;;;;;;45.53;26.20;;;0.00;99.90;;;;;;5018594;28;20460;-60
2024/01/12 00:57:43;;;;;;;51.60;26.90;;;0.00;99.90;;;;;;5017796;28;20464;-61
2024/01/12 01:00:11;;;;;;;47.97;27.83;;;0.00;99.90;;;;;;5018508;28;20486;-61
2024/01/12 01:02:39;;;;;;;48.33;27.53;;;-0.10;99.90;;;;;;5018619;28;20494;-60
2024/01/12 01:05:08;;;;;;;50.27;28.93;;;-0.10;99.90;;;;;;5019042;28;20593;-60
2024/01/12 01:07:36;;;;;;;49.20;28.47;;;-0.10;99.90;;;;;;5018246;28;20464;-61
2024/01/12 01:10:03;;;;;;;52.33;28.67;;;-0.10;99.90;;;;;;5018277;28;20467;-61
2024/01/12 01:12:30;;;;;;;49.10;27.13;;;0.00;99.90;;;;;;5018084;28;20460;-60
2024/01/12 01:14:58;;;;;;;42.90;27.23;;;0.00;99.90;;;;;;5018364;28;20467;-61
2024/01/12 01:17:25;;;;;;;47.97;27.03;;;0.10;99.90;;;;;;5018037;28;20494;-61
2024/01/12 01:19:53;;;;;;;46.40;27.20;;;0.10;99.90;;;;;;5018214;28;20558;-61
2024/01/12 01:22:21;;;;;;;47.33;26.83;;;0.10;99.90;;;;;;5018945;28;20899;-61
2024/01/12 01:24:49;;;;;;;49.27;26.40;;;0.00;99.90;;;;;;5018375;28;20496;-61
2024/01/12 01:27:16;;;;;;;46.47;26.93;;;-0.10;99.90;;;;;;5017998;28;20463;-60
2024/01/12 01:29:43;;;;;;;50.77;27.40;;;-0.10;99.90;;;;;;5017896;28;20534;-61
2024/01/12 01:32:11;;;;;;;46.93;26.93;;;0.00;99.90;;;;;;5018492;28;20518;-60
2024/01/12 01:34:38;;;;;;;47.47;26.67;;;-0.10;99.90;;;;;;5018602;28;20465;-61
2024/01/12 01:37:07;;;;;;;56.47;27.93;;;-0.10;99.90;;;;;;5017462;28;20471;-61
2024/01/12 01:39:36;;;;;;;56.80;29.80;;;-0.10;99.90;;;;;;5018460;28;20442;-60
2024/01/12 01:42:03;;;;;;;54.87;28.60;;;-0.20;99.90;;;;;;5018076;28;20471;-60
2024/01/12 01:44:30;;;;;;;55.07;28.67;;;-0.20;99.90;;;;;;5018215;28;20837;-60
2024/01/12 01:46:59;;;;;;;54.27;27.10;;;-0.20;99.90;;;;;;5018320;28;20553;-61
2024/01/12 01:49:27;;;;;;;46.33;27.13;;;-0.20;99.90;;;;;;5018381;28;20883;-61
2024/01/12 01:51:55;;;;;;;49.40;27.80;;;-0.20;99.90;;;;;;5017912;28;20811;-60
2024/01/12 01:54:22;;;;;;;54.00;29.17;;;-0.20;99.90;;;;;;5017827;28;20554;-61
2024/01/12 01:56:51;;;;;;;48.80;27.80;;;-0.20;99.90;;;;;;5018057;28;20526;-61
2024/01/12 01:59:18;;;;;;;50.23;26.57;;;-0.10;99.90;;;;;;5010973;28;20585;-61
2024/01/12 02:01:46;;;;;;;52.63;28.30;;;-0.10;99.90;;;;;;4998105;28;20516;-60
2024/01/12 02:04:13;;;;;;;52.40;28.33;;;0.00;99.90;;;;;;4998187;28;20583;-61
2024/01/12 02:06:41;;;;;;;53.63;29.13;;;0.00;99.90;;;;;;4998436;28;20584;-60
2024/01/12 02:09:09;;;;;;;58.93;29.97;;;0.00;99.90;;;;;;4998332;28;20468;-60
2024/01/12 02:11:36;;;;;;;49.77;28.27;;;-0.10;99.90;;;;;;4998151;28;20945;-61
2024/01/12 02:14:06;;;;;;;52.17;30.27;;;0.00;99.90;;;;;;4998395;28;20468;-61
2024/01/12 02:16:35;;;;;;;54.80;28.27;;;-0.10;99.90;;;;;;4998405;28;20456;-61
2024/01/12 02:19:02;;;;;;;48.23;27.83;;;-0.10;99.90;;;;;;4998002;28;20461;-61
2024/01/12 02:21:31;;;;;;;54.50;29.57;;;-0.10;99.90;;;;;;4998057;28;20464;-60
2024/01/12 02:23:58;;;;;;;43.13;25.20;;;-0.10;99.90;;;;;;4998299;28;20464;-61
2024/01/12 02:26:26;;;;;;;46.30;25.10;;;-0.10;99.90;;;;;;5002119;28;20492;-61
2024/01/12 02:28:53;;;;;;;52.93;28.97;;;0.00;99.90;;;;;;5001725;28;20471;-61
2024/01/12 02:31:21;;;;;;;47.20;28.33;;;0.10;99.90;;;;;;5001760;28;20476;-61
2024/01/12 02:33:49;;;;;;;53.00;30.83;;;0.10;99.90;;;;;;5001516;28;20500;-61
2024/01/12 02:36:17;;;;;;;44.57;25.47;;;0.10;99.90;;;;;;5001749;28;20469;-61
2024/01/12 02:38:50;;;;;;;45.30;24.70;;;0.10;99.90;;;;;;5001484;28;20475;-60
2024/01/12 02:41:18;;;;;;;47.30;26.67;;;0.10;99.90;;;;;;5001484;28;20464;-61
2024/01/12 02:43:45;;;;;;;47.10;27.83;;;0.10;99.90;;;;;;5001799;28;20915;-61
2024/01/12 02:46:12;;;;;;;36.90;22.40;;;0.00;99.90;;;;;;5001806;28;20951;-61
2024/01/12 02:48:40;;;;;;;42.70;23.13;;;-0.10;99.90;;;;;;5012914;28;20464;-60
2024/01/12 02:51:07;;;;;;;43.60;23.43;;;0.00;99.90;;;;;;5020552;28;20841;-60
2024/01/12 02:53:34;;;;;;;41.67;24.60;;;0.00;99.90;;;;;;5021070;28;20768;-61
2024/01/12 02:56:03;;;;;;;36.00;23.33;;;0.00;99.90;;;;;;5021276;28;20554;-61
2024/01/12 02:58:30;;;;;;;42.63;23.33;;;0.00;99.90;;;;;;5019932;28;20881;-60
2024/01/12 03:00:58;;;;;;;36.97;21.87;;;0.10;99.90;;;;;;5020431;28;20813;-61
2024/01/12 03:03:25;;;;;;;41.00;24.73;;;0.10;99.90;;;;;;5020648;28;20487;-61
2024/01/12 03:05:52;;;;;;;47.37;23.27;;;0.10;99.90;;;;;;5020769;28;20538;-61
2024/01/12 03:08:19;;;;;;;39.53;23.43;;;0.10;99.90;;;;;;5020845;28;20503;-61
2024/01/12 03:10:46;;;;;;;45.80;26.87;;;0.10;99.90;;;;;;5020847;28;20464;-61
2024/01/12 03:13:15;;;;;;;42.67;26.00;;;0.10;99.90;;;;;;5020441;28;20518;-61
2024/01/12 03:15:42;;;;;;;44.10;24.93;;;0.00;99.90;;;;;;5020573;28;20893;-61
2024/01/12 03:18:10;;;;;;;44.33;25.33;;;0.00;99.90;;;;;;5020747;28;20893;-61
2024/01/12 03:20:37;;;;;;;42.13;24.30;;;0.00;99.90;;;;;;5020727;28;20774;-60
2024/01/12 03:23:04;;;;;;;37.83;21.83;;;0.00;99.90;;;;;;5020927;28;20491;-61
2024/01/12 03:25:31;;;;;;;39.80;23.80;;;0.00;99.90;;;;;;5020463;28;20470;-61
2024/01/12 03:28:00;;;;;;;47.47;26.13;;;0.00;99.90;;;;;;5015243;28;20542;-61
2024/01/12 03:30:28;;;;;;;41.93;24.20;;;0.00;99.90;;;;;;5002765;28;20515;-61
2024/01/12 03:32:56;;;;;;;50.13;26.00;;;0.00;99.90;;;;;;5006641;28;20456;-61
2024/01/12 03:35:23;;;;;;;44.70;23.80;;;0.00;99.90;;;;;;5009796;28;20464;-61
2024/01/12 03:37:50;;;;;;;35.83;20.17;;;0.10;99.90;;;;;;5002206;28;20469;-62
2024/01/12 03:40:17;;;;;;;38.47;22.47;;;0.00;99.90;;;;;;4999300;28;20487;-61
2024/01/12 03:42:44;;;;;;;38.20;21.57;;;-0.10;99.90;;;;;;5000730;28;20461;-61
2024/01/12 03:45:12;;;;;;;36.93;22.40;;;0.00;99.90;;;;;;4999237;28;20981;-62
2024/01/12 03:47:41;;;;;;;38.80;21.57;;;0.00;99.90;;;;;;5011087;28;20816;-61
2024/01/12 03:50:09;;;;;;;41.10;23.70;;;0.00;99.90;;;;;;5019850;28;20469;-61
2024/01/12 03:52:36;;;;;;;41.77;21.43;;;0.00;99.90;;;;;;5013433;28;20463;-61
2024/01/12 03:55:04;;;;;;;40.50;22.97;;;-0.10;99.90;;;;;;5006322;28;20455;-61
2024/01/12 03:57:31;;;;;;;38.57;23.73;;;0.00;99.90;;;;;;4999294;28;20847;-60
2024/01/12 03:59:58;;;;;;;38.57;23.00;;;0.00;99.90;;;;;;4999762;28;20538;-61
2024/01/12 04:02:26;;;;;;;37.40;21.23;;;0.00;99.90;;;;;;5008071;28;20455;-61
2024/01/12 04:04:54;;;;;;;31.20;19.77;;;0.00;99.90;;;;;;5010000;28;20721;-61
2024/01/12 04:07:22;;;;;;;25.67;16.17;;;-0.10;99.90;;;;;;5010865;28;20467;-61
2024/01/12 04:09:49;;;;;;;23.70;15.20;;;0.00;99.90;;;;;;5009957;28;20505;-61
2024/01/12 04:12:16;;;;;;;29.10;17.30;;;0.00;99.90;;;;;;5009954;28;20526;-61
2024/01/12 04:14:46;;;;;;;33.90;18.70;;;0.00;99.90;;;;;;5007740;28;20456;-61
2024/01/12 04:17:13;;;;;;;32.30;19.33;;;0.00;99.90;;;;;;5007930;28;20460;-61
2024/01/12 04:19:40;;;;;;;30.90;17.63;;;-0.10;99.90;;;;;;5008405;28;20452;-61
2024/01/12 04:22:09;;;;;;;30.73;19.10;;;-0.10;99.90;;;;;;5008283;28;20462;-61
2024/01/12 04:24:36;;;;;;;29.13;17.80;;;-0.10;99.90;;;;;;5008333;28;20465;-61
2024/01/12 04:27:03;;;;;;;29.07;16.97;;;-0.10;99.90;;;;;;5007811;28;20877;-61
2024/01/12 04:29:30;;;;;;;23.87;15.43;;;-0.10;99.90;;;;;;5010240;28;20449;-61
2024/01/12 04:31:57;;;;;;;22.17;14.93;;;-0.10;99.90;;;;;;5008531;28;20539;-61
2024/01/12 04:34:25;;;;;;;22.40;13.37;;;-0.10;99.90;;;;;;5010012;28;20902;-61
2024/01/12 04:36:52;;;;;;;24.80;15.20;;;-0.10;99.90;;;;;;5008248;28;20508;-60
2024/01/12 04:39:21;;;;;;;24.47;14.70;;;-0.10;99.90;;;;;;5008360;28;20539;-61
2024/01/12 04:41:49;;;;;;;24.23;13.00;;;0.00;99.90;;;;;;5007910;28;20526;-61
2024/01/12 04:44:16;;;;;;;18.20;13.37;;;-0.10;99.90;;;;;;5008072;28;20558;-61
2024/01/12 04:46:43;;;;;;;19.57;12.53;;;-0.10;99.90;;;;;;5009583;28;20541;-61
2024/01/12 04:49:10;;;;;;;23.97;14.43;;;-0.10;99.90;;;;;;5006842;28;20914;-61
2024/01/12 04:51:38;;;;;;;21.90;14.00;;;-0.10;99.90;;;;;;5007568;28;20459;-61
2024/01/12 04:54:05;;;;;;;22.90;14.40;;;0.00;99.90;;;;;;5009263;28;20477;-61
2024/01/12 04:56:34;;;;;;;24.30;13.90;;;0.00;99.90;;;;;;5008274;28;20464;-61
2024/01/12 04:59:01;;;;;;;22.60;13.80;;;-0.10;99.90;;;;;;5007550;28;20558;-61
2024/01/12 05:01:28;;;;;;;19.33;11.20;;;0.00;99.90;;;;;;5007373;28;20519;-61
2024/01/12 05:03:55;;;;;;;20.13;12.67;;;0.00;99.90;;;;;;5007924;28;20482;-61
2024/01/12 05:06:23;;;;;;;20.70;12.87;;;-0.10;99.90;;;;;;5009461;28;20730;-62
2024/01/12 05:09:09;;;;;;;21.33;12.87;;;-0.10;99.90;;;;;;5134740;27;20594;-60
2024/01/12 05:11:36;;;;;;;21.70;13.67;;;-0.20;99.90;;;;;;5135418;28;20471;-60
2024/01/12 05:14:04;;;;;;;20.13;12.80;;;-0.20;99.90;;;;;;5135105;27;20787;-60
2024/01/12 05:16:31;;;;;;;17.70;12.40;;;-0.20;99.90;;;;;;5135375;28;20467;-60
2024/01/12 05:18:58;;;;;;;19.57;13.17;;;-0.20;99.90;;;;;;5135447;28;20465;-60
2024/01/12 05:21:26;;;;;;;21.43;13.07;;;-0.30;99.90;;;;;;5135207;28;20879;-61
2024/01/12 05:23:53;;;;;;;21.90;13.63;;;-0.30;99.90;;;;;;5135602;28;20744;-60
2024/01/12 05:26:22;;;;;;;22.50;14.10;;;-0.30;99.90;;;;;;5134883;28;20481;-60
2024/01/12 05:28:49;;;;;;;20.37;14.37;;;-0.20;99.90;;;;;;5131771;28;20547;-60
2024/01/12 05:31:17;;;;;;;24.83;13.73;;;-0.20;99.90;;;;;;5135137;28;20449;-60
2024/01/12 05:33:44;;;;;;;21.67;12.80;;;-0.20;99.90;;;;;;5134768;28;20451;-60
2024/01/12 05:36:11;;;;;;;24.03;15.27;;;-0.20;99.90;;;;;;5134399;28;20541;-61
2024/01/12 05:38:39;;;;;;;20.23;13.57;;;-0.10;99.90;;;;;;5134670;28;20549;-60
2024/01/12 05:41:06;;;;;;;25.13;13.70;;;-0.20;99.90;;;;;;5134597;28;20513;-60
2024/01/12 05:43:34;;;;;;;24.37;13.97;;;-0.20;99.90;;;;;;5134880;28;20453;-60
2024/01/12 05:46:02;;;;;;;20.67;12.37;;;-0.10;99.90;;;;;;5134956;28;20538;-60
2024/01/12 05:48:29;;;;;;;17.73;10.97;;;-0.10;99.90;;;;;;5131756;28;20871;-60
2024/01/12 05:50:57;;;;;;;20.03;12.07;;;-0.20;99.90;;;;;;5134617;27;20510;-60
2024/01/12 05:53:25;;;;;;;22.97;13.47;;;-0.20;99.90;;;;;;5134581;28;20829;-60
2024/01/12 05:55:53;;;;;;;22.57;13.37;;;-0.20;99.90;;;;;;5134559;27;20457;-60
2024/01/12 05:58:21;;;;;;;22.97;13.83;;;-0.20;99.90;;;;;;5134238;28;20735;-60
2024/01/12 06:00:49;;;;;;;23.97;13.13;;;-0.20;99.90;;;;;;5133111;27;20461;-60
2024/01/12 06:03:17;;;;;;;22.50;13.17;;;-0.20;99.90;;;;;;5132956;27;20746;-61
2024/01/12 06:05:45;;;;;;;20.80;11.73;;;-0.30;99.90;;;;;;5134350;28;20544;-61
2024/01/12 06:08:13;;;;;;;22.27;12.90;;;-0.30;99.90;;;;;;5134037;27;20537;-60
2024/01/12 06:10:40;;;;;;;26.23;13.10;;;-0.40;99.90;;;;;;5134254;27;20496;-60
2024/01/12 06:13:08;;;;;;;22.63;13.63;;;-0.30;99.90;;;;;;5134444;27;20925;-60
2024/01/12 06:15:36;;;;;;;28.97;16.00;;;-0.30;99.90;;;;;;5133687;28;20453;-60
2024/01/12 06:18:05;;;;;;;30.67;14.73;;;-0.20;99.90;;;;;;5132882;28;20470;-60
2024/01/12 06:20:32;;;;;;;33.03;16.87;;;-0.10;99.90;;;;;;5116400;28;20482;-60
2024/01/12 06:22:59;;;;;;;32.67;17.70;;;-0.20;99.90;;;;;;5119496;28;20500;-60
2024/01/12 06:25:29;;;;;;;33.70;17.30;;;-0.30;99.90;;;;;;5118639;28;20887;-60
2024/01/12 06:27:56;;;;;;;35.27;17.23;;;-0.30;99.90;;;;;;5118448;28;20835;-60
2024/01/12 06:30:23;;;;;;;24.03;12.97;;;-0.30;99.90;;;;;;5118705;28;21175;-60
2024/01/12 06:32:50;;;;;;;27.00;15.43;;;-0.40;99.90;;;;;;5116404;28;20464;-60
2024/01/12 06:35:19;;;;;;;39.00;15.57;;;-0.40;99.90;;;;;;5118048;28;20559;-61
2024/01/12 06:37:47;;;;;;;34.27;17.30;;;-0.40;99.90;;;;;;5118171;28;20425;-60
2024/01/12 06:40:14;;;;;;;29.00;16.93;;;-0.40;99.90;;;;;;5118019;28;20510;-60
2024/01/12 06:42:42;;;;;;;29.90;16.70;;;-0.30;99.90;;;;;;5119962;28;20826;-60
2024/01/12 06:45:11;;;;;;;37.63;19.07;;;-0.30;99.90;;;;;;5120414;28;20469;-60
2024/01/12 06:47:39;;;;;;;36.40;17.37;;;-0.30;99.90;;;;;;5120443;28;20863;-61
2024/01/12 06:50:07;;;;;;;29.90;16.37;;;-0.30;99.90;;;;;;5119659;28;20463;-60
2024/01/12 06:52:37;;;;;;;38.50;18.47;;;-0.30;99.90;;;;;;5120312;28;20938;-60
2024/01/12 06:55:05;;;;;;;28.90;13.83;;;-0.30;99.90;;;;;;5120145;28;20469;-60
2024/01/12 06:57:33;;;;;;;28.50;14.67;;;-0.40;99.90;;;;;;5120538;28;20915;-60
2024/01/12 07:00:00;;;;;;;28.20;15.37;;;-0.40;99.90;;;;;;5120237;28;20458;-60
2024/01/12 07:02:27;;;;;;;30.37;15.97;;;-0.30;99.90;;;;;;5119850;28;20459;-60
2024/01/12 07:04:55;;;;;;;30.93;16.27;;;-0.30;99.90;;;;;;5120129;28;20547;-60
2024/01/12 07:07:22;;;;;;;34.03;18.17;;;-0.30;99.90;;;;;;5120132;28;20848;-60
2024/01/12 07:09:51;;;;;;;31.47;18.07;;;-0.30;99.90;;;;;;5120007;28;20509;-61
2024/01/12 07:12:18;;;;;;;33.87;16.17;;;-0.30;99.90;;;;;;5119879;28;20436;-60
2024/01/12 07:14:45;;;;;;;31.97;15.40;;;-0.30;99.90;;;;;;5120136;28;20893;-60
2024/01/12 07:17:13;;;;;;;28.53;15.70;;;-0.40;99.90;;;;;;5120011;28;20493;-60
2024/01/12 07:19:43;;;;;;;29.70;15.87;;;-0.30;99.90;;;;;;5119747;28;20794;-60
2024/01/12 07:22:10;;;;;;;31.00;14.20;;;-0.30;99.90;;;;;;5119460;28;20494;-60
2024/01/12 07:24:37;;;;;;;35.13;16.97;;;-0.40;99.90;;;;;;5120134;28;20489;-60
2024/01/12 07:27:06;;;;;;;27.37;13.90;;;-0.50;99.90;;;;;;5120054;28;20463;-61
2024/01/12 07:29:34;;;;;;;25.40;14.70;;;-0.50;99.90;;;;;;5119733;28;20490;-60
2024/01/12 07:32:01;;;;;;;27.23;14.10;;;-0.50;99.90;;;;;;5118820;28;20456;-60
2024/01/12 07:34:28;;;;;;;26.97;13.13;;;-0.40;99.90;;;;;;5119761;28;20459;-60
2024/01/12 07:36:55;;;;;;;22.93;12.07;;;-0.50;99.90;;;;;;5119401;28;20462;-60
2024/01/12 07:39:23;;;;;;;19.60;11.13;;;-0.50;99.90;;;;;;5119596;28;20779;-60
2024/01/12 07:41:51;;;;;;;20.97;12.00;;;-0.50;99.90;;;;;;5119082;28;20458;-60
2024/01/12 07:44:19;;;;;;;25.30;12.67;;;-0.50;99.90;;;;;;5119329;28;20463;-61
2024/01/12 07:46:47;;;;;;;22.27;13.93;;;-0.60;99.90;;;;;;5119015;27;20515;-60
2024/01/12 07:49:15;;;;;;;18.73;11.00;;;-0.60;99.90;;;;;;5119327;28;20532;-60
2024/01/12 07:51:42;;;;;;;20.30;11.37;;;-0.60;99.90;;;;;;5118251;28;20456;-60
2024/01/12 07:54:09;;;;;;;17.53;9.70;;;-0.60;99.90;;;;;;5117307;28;20468;-60
2024/01/12 07:56:37;;;;;;;17.33;9.63;;;-0.70;99.90;;;;;;5117755;28;20504;-60
2024/01/12 07:59:04;;;;;;;23.30;10.10;;;-0.70;99.90;;;;;;5117644;28;20755;-60
2024/01/12 08:01:33;;;;;;;15.70;9.77;;;-0.70;99.90;;;;;;5116670;28;20458;-60
2024/01/12 08:04:00;;;;;;;17.17;10.00;;;-0.60;99.90;;;;;;5116487;28;20753;-61
2024/01/12 08:06:28;;;;;;;19.37;9.80;;;-0.50;99.90;;;;;;5116072;28;20488;-60
2024/01/12 08:08:55;;;;;;;17.63;10.57;;;-0.50;99.90;;;;;;5115412;28;20501;-61
2024/01/12 08:11:23;;;;;;;19.43;9.60;;;-0.50;99.90;;;;;;5115816;28;20466;-60
2024/01/12 08:13:50;;;;;;;17.77;9.93;;;-0.40;99.90;;;;;;5115634;28;20459;-61
2024/01/12 08:16:21;;;;;;;18.97;10.90;;;-0.40;99.90;;;;;;5116789;28;20729;-60
2024/01/12 08:18:51;;;;;;;18.60;10.00;;;-0.60;99.90;;;;;;5118045;28;20466;-60
2024/01/12 08:21:23;;;;;;;23.30;12.27;;;-0.50;99.90;;;;;;5118525;28;20767;-60
2024/01/12 08:23:51;;;;;;;18.00;9.30;;;-0.50;99.90;;;;;;5117812;28;20546;-60
2024/01/12 08:26:19;;;;;;;21.20;11.90;;;-0.50;99.90;;;;;;5118311;28;20489;-60
2024/01/12 08:28:51;;;;;;;18.47;11.53;;;-0.60;99.90;;;;;;5118982;28;20935;-60
2024/01/12 08:31:18;;;;;;;22.60;11.70;;;-0.50;99.90;;;;;;5118230;28;20490;-60
2024/01/12 08:33:48;;;;;;;20.87;12.50;;;-0.50;99.90;;;;;;5116973;28;20509;-60
2024/01/12 08:36:17;;;;;;;25.30;12.77;;;-0.40;99.90;;;;;;5117349;28;20455;-61
2024/01/12 08:38:44;;;;;;;29.63;14.37;;;-0.40;99.90;;;;;;5117633;28;20477;-60
2024/01/12 08:41:11;;;;;;;26.27;14.47;;;-0.40;99.90;;;;;;5117862;28;20984;-60
2024/01/12 08:43:39;;;;;;;29.07;14.87;;;-0.40;99.90;;;;;;5117788;28;20451;-60
2024/01/12 08:46:08;;;;;;;25.73;14.83;;;-0.40;99.90;;;;;;5117950;28;20771;-61
2024/01/12 08:48:36;;;;;;;29.60;15.30;;;-0.40;99.90;;;;;;5116246;28;20547;-60
2024/01/12 08:51:03;;;;;;;30.93;14.93;;;-0.50;99.90;;;;;;5117690;28;20805;-60
2024/01/12 08:53:32;;;;;;;31.77;15.43;;;-0.40;99.90;;;;;;5118545;28;20883;-60
2024/01/12 08:55:59;;;;;;;36.17;15.60;;;-0.30;99.90;;;;;;5118142;28;20860;-60
2024/01/12 08:58:27;;;;;;;30.93;17.67;;;-0.30;99.90;;;;;;5118126;28;20455;-61
2024/01/12 09:00:54;;;;;;;38.73;17.27;;;-0.20;99.90;;;;;;5118036;28;20451;-60
2024/01/12 09:03:21;;;;;;;35.80;18.53;;;-0.20;99.90;;;;;;5118151;27;20495;-60
2024/01/12 09:05:49;;;;;;;34.13;18.83;;;-0.10;99.90;;;;;;5118415;28;20455;-60
2024/01/12 09:08:16;;;;;;;43.00;19.87;;;-0.10;99.90;;;;;;5115950;28;20498;-60
2024/01/12 09:10:45;;;;;;;38.50;20.13;;;-0.10;99.90;;;;;;5116305;28;20466;-61
2024/01/12 09:13:12;;;;;;;34.77;17.80;;;-0.20;99.90;;;;;;5116653;28;20459;-60
2024/01/12 09:15:40;;;;;;;38.43;18.07;;;-0.20;99.90;;;;;;5115645;28;20752;-61
2024/01/12 09:18:08;;;;;;;33.33;17.57;;;-0.40;99.90;;;;;;5115510;28;20462;-60
2024/01/12 09:20:35;;;;;;;33.50;17.60;;;-0.40;99.90;;;;;;5116187;28;20463;-61
2024/01/12 09:23:02;;;;;;;42.20;18.50;;;-0.40;99.90;;;;;;5117354;28;20814;-60
2024/01/12 09:25:32;;;;;;;35.37;18.20;;;-0.30;99.90;;;;;;5118187;28;20888;-60
2024/01/12 09:28:00;;;;;;;30.10;17.13;;;-0.30;99.90;;;;;;5118052;28;20834;-60
2024/01/12 09:30:28;;;;;;;25.90;14.93;;;-0.30;99.90;;;;;;5117666;28;20804;-61
2024/01/12 09:32:55;;;;;;;26.27;14.53;;;-0.40;99.90;;;;;;5116578;28;20522;-61
2024/01/12 09:35:23;;;;;;;28.93;15.63;;;-0.50;99.90;;;;;;5116852;28;20899;-61
2024/01/12 09:37:51;;;;;;;25.27;14.30;;;-0.40;99.90;;;;;;5116937;28;20504;-61
2024/01/12 09:40:19;;;;;;;25.07;13.57;;;-0.30;99.90;;;;;;5117301;28;20455;-61
2024/01/12 09:42:49;;;;;;;26.60;13.67;;;-0.20;99.90;;;;;;5117348;28;20888;-60
2024/01/12 09:45:21;;;;;;;29.87;16.37;;;-0.10;99.90;;;;;;5117317;28;20443;-62
2024/01/12 09:47:48;;;;;;;24.57;14.87;;;0.10;99.90;;;;;;5117416;28;20452;-61
2024/01/12 09:50:17;;;;;;;27.00;14.43;;;0.20;99.90;;;;;;5115557;28;21058;-61
2024/01/12 09:52:44;;;;;;;26.37;14.07;;;0.00;99.90;;;;;;5115799;28;20760;-61
2024/01/12 09:55:12;;;;;;;26.33;14.87;;;0.10;99.90;;;;;;5118898;28;20558;-62
2024/01/12 09:57:40;;;;;;;22.93;14.50;;;-0.10;99.90;;;;;;5119962;28;20462;-61
2024/01/12 10:00:10;;;;;;;22.47;13.83;;;-0.10;99.90;;;;;;5119634;28;20894;-61
2024/01/12 10:02:39;;;;;;;28.03;16.20;;;-0.10;99.90;;;;;;5119883;28;20426;-62
2024/01/12 10:05:08;;;;;;;26.07;14.47;;;-0.10;99.90;;;;;;5121037;28;20875;-61
2024/01/12 10:07:36;;;;;;;28.60;15.97;;;-0.10;99.90;;;;;;5121173;27;20536;-62
2024/01/12 10:10:05;;;;;;;32.37;16.80;;;-0.10;99.90;;;;;;5120997;28;20491;-61
2024/01/12 10:12:32;;;;;;;27.50;15.90;;;-0.20;99.90;;;;;;5121236;28;20434;-62
2024/01/12 10:15:01;;;;;;;29.30;16.33;;;-0.20;99.90;;;;;;5120539;28;20470;-62
2024/01/12 10:17:28;;;;;;;28.60;15.87;;;-0.10;99.90;;;;;;5121215;28;20954;-62
2024/01/12 10:19:58;;;;;;;24.83;15.23;;;-0.10;99.90;;;;;;5121067;28;20880;-62
2024/01/12 10:22:25;;;;;;;28.87;15.00;;;0.00;99.90;;;;;;5120887;28;20876;-62
2024/01/12 10:25:00;;;;;;;29.13;17.17;;;0.00;99.90;;;;;;5120992;28;20459;-62
2024/01/12 10:27:27;;;;;;;30.47;17.17;;;0.10;99.90;;;;;;5121153;28;20928;-62
2024/01/12 10:29:56;;;;;;;29.13;16.73;;;0.10;99.90;;;;;;5121178;28;20772;-62
2024/01/12 10:32:24;;;;;;;36.30;19.47;;;0.00;99.90;;;;;;5120108;28;20451;-62
2024/01/12 10:34:53;;;;;;;36.43;19.80;;;0.10;99.90;;;;;;5120279;28;20739;-62
2024/01/12 10:37:24;;;;;;;31.50;18.80;;;0.20;99.90;;;;;;5120665;28;20440;-62
2024/01/12 10:39:52;;;;;;;31.77;19.17;;;0.30;99.90;;;;;;5120799;28;20469;-62
2024/01/12 10:42:20;;;;;;;34.90;21.00;;;0.10;99.90;;;;;;5116770;28;20455;-62
2024/01/12 10:44:52;;;;;;;38.50;21.50;;;0.10;99.90;;;;;;5117047;28;20546;-62
2024/01/12 10:47:22;;;;;;;34.93;21.13;;;0.10;99.90;;;;;;5119456;28;20426;-63
2024/01/12 10:49:51;;;;;;;40.67;22.60;;;0.10;99.90;;;;;;5119283;28;20483;-63
2024/01/12 10:52:32;;;;;;;38.73;22.30;;;0.00;99.90;;;;;;5116014;28;20523;-64
2024/01/12 10:55:05;;;;;;;37.73;24.27;;;0.00;99.90;;;;;;5110029;28;20936;-65
2024/01/12 10:57:33;;;;;;;36.60;22.80;;;0.00;99.90;;;;;;5106219;28;20525;-65
2024/01/12 11:00:01;;;;;;;43.77;26.80;;;0.00;99.90;;;;;;5113325;28;20473;-65
2024/01/12 11:02:29;;;;;;;48.10;26.97;;;0.00;99.90;;;;;;5118576;28;20953;-65
2024/01/12 11:04:58;;;;;;;46.30;27.57;;;0.10;99.90;;;;;;5117549;28;20456;-63
2024/01/12 11:07:28;;;;;;;38.90;24.97;;;0.10;99.90;;;;;;5119700;28;20527;-63
2024/01/12 11:09:57;;;;;;;50.20;26.70;;;0.10;99.90;;;;;;5119511;28;20487;-63
2024/01/12 11:12:33;;;;;;;46.90;24.63;;;0.00;99.90;;;;;;5118364;28;20872;-62
2024/01/12 11:15:01;;;;;;;51.43;27.00;;;0.10;99.90;;;;;;5117868;28;20458;-61
2024/01/12 11:17:29;;;;;;;50.83;28.30;;;0.30;99.90;;;;;;5118310;28;20459;-62
2024/01/12 11:20:09;;;;;;;52.50;25.97;;;0.30;99.90;;;;;;5118245;28;20454;-62
2024/01/12 11:22:39;;;;;;;47.00;29.80;;;0.30;99.90;;;;;;5116993;28;20458;-62
2024/01/12 11:25:09;;;;;;;49.40;27.53;;;0.30;99.90;;;;;;5117663;28;20463;-62
2024/01/12 11:27:39;;;;;;;51.23;28.30;;;0.30;99.90;;;;;;5119067;28;20459;-62
2024/01/12 11:30:09;;;;;;;43.77;27.50;;;0.40;99.90;;;;;;5119298;28;20494;-62
2024/01/12 11:32:38;;;;;;;43.10;27.13;;;0.40;99.90;;;;;;5119482;28;20561;-62
2024/01/12 11:35:13;;;;;;;49.50;26.17;;;0.30;99.90;;;;;;5119962;28;20456;-63
2024/01/12 11:37:44;;;;;;;36.60;21.17;;;0.30;99.90;;;;;;5120092;27;20509;-63
2024/01/12 11:40:13;;;;;;;31.80;19.20;;;0.30;99.90;;;;;;5119240;28;20462;-64
2024/01/12 11:42:43;;;;;;;34.50;20.10;;;0.40;99.90;;;;;;5119208;28;20549;-63
2024/01/12 11:45:13;;;;;;;31.10;18.00;;;0.40;99.90;;;;;;5119360;28;20459;-64
2024/01/12 11:47:42;;;;;;;33.87;19.83;;;0.40;99.90;;;;;;5118532;28;20459;-63
2024/01/12 11:50:11;;;;;;;31.30;18.77;;;0.50;99.90;;;;;;5118228;28;20488;-64
2024/01/12 11:52:39;;;;;;;32.47;17.23;;;0.60;99.90;;;;;;5119262;28;20487;-64
2024/01/12 11:55:09;;;;;;;29.67;18.13;;;0.50;99.90;;;;;;5119055;28;20460;-63
2024/01/12 11:57:37;;;;;;;31.50;17.87;;;0.50;99.90;;;;;;5119447;28;20463;-66
2024/01/12 12:00:06;;;;;;;34.63;19.33;;;0.50;99.90;;;;;;5117495;28;20451;-67
2024/01/12 12:02:35;;;;;;;29.60;17.80;;;0.40;99.90;;;;;;5115873;28;20696;-67
2024/01/12 12:05:05;;;;;;;30.80;17.20;;;0.50;99.90;;;;;;5115637;28;20536;-66
2024/01/12 12:07:35;;;;;;;25.57;15.53;;;0.60;99.90;;;;;;5115102;28;20479;-66
2024/01/12 12:10:03;;;;;;;30.93;17.20;;;0.60;99.90;;;;;;5115973;28;20924;-66
2024/01/12 12:12:33;;;;;;;25.13;15.47;;;0.60;99.90;;;;;;5116035;28;20456;-66
2024/01/12 12:15:05;;;;;;;31.10;18.37;;;0.70;99.90;;;;;;5116545;28;20539;-66
2024/01/12 12:17:33;;;;;;;31.50;17.30;;;0.70;99.90;;;;;;5108436;28;20945;-66
2024/01/12 12:20:01;;;;;;;32.33;17.70;;;0.80;99.90;;;;;;5116773;28;20463;-66
2024/01/12 12:22:30;;;;;;;29.63;18.40;;;0.80;99.90;;;;;;5115582;28;20509;-66
2024/01/12 12:24:58;;;;;;;30.80;18.07;;;0.80;99.90;;;;;;5117125;28;20514;-66
2024/01/12 12:27:26;;;;;;;30.97;18.30;;;0.90;99.90;;;;;;5117247;28;20466;-66
2024/01/12 12:29:55;;;;;;;33.63;19.10;;;0.80;99.90;;;;;;5117304;28;20839;-67
2024/01/12 12:32:23;;;;;;;35.63;20.00;;;0.80;99.90;;;;;;5116735;28;20460;-66
2024/01/12 12:34:51;;;;;;;34.43;19.87;;;0.90;99.90;;;;;;5117021;28;20506;-67